createdAt,value
2024-01-26T00:01:28.657Z,7.68
2024-01-26T00:04:34.734Z,7.56
2024-01-26T00:07:40.709Z,7.45
2024-01-26T00:10:46.482Z,7.41
2024-01-26T00:13:52.149Z,7.35
2024-01-26T00:16:57.823Z,7.26
2024-01-26T00:20:03.492Z,7.13
2024-01-26T00:23:09.176Z,6.96
2024-01-26T00:26:16.117Z,6.90
2024-01-26T00:29:22.320Z,6.79
2024-01-26T00:32:27.986Z,6.82
2024-01-26T00:35:33.842Z,6.89
2024-01-26T00:38:39.478Z,6.96
2024-01-26T00:41:45.100Z,6.97
2024-01-26T00:44:50.707Z,6.97
2024-01-26T00:47:56.409Z,6.80
2024-01-26T00:51:02.842Z,6.66
2024-01-26T00:54:08.599Z,6.57
2024-01-26T00:57:15.323Z,6.54
2024-01-26T01:00:21.585Z,6.49
2024-01-26T01:03:27.491Z,6.51
2024-01-26T01:06:33.307Z,6.44
2024-01-26T01:09:41.558Z,6.45
2024-01-26T01:12:47.877Z,6.48
2024-01-26T01:15:53.625Z,6.50
2024-01-26T01:18:59.392Z,6.41
2024-01-26T01:22:05.365Z,6.35
2024-01-26T01:25:13.336Z,6.32
2024-01-26T01:28:19.052Z,6.30
2024-01-26T01:31:24.716Z,6.23
2024-01-26T01:34:30.701Z,6.20
2024-01-26T01:37:36.457Z,6.24
2024-01-26T01:40:42.221Z,6.33
2024-01-26T01:43:57.181Z,6.41
2024-01-26T01:47:02.821Z,6.38
2024-01-26T01:50:10.001Z,6.39
2024-01-26T01:53:17.174Z,6.39
2024-01-26T01:56:25.630Z,6.44
2024-01-26T01:59:32.401Z,6.49
2024-01-26T02:02:38.499Z,6.56
2024-01-26T02:05:45.520Z,6.64
2024-01-26T02:08:51.232Z,6.74
2024-01-26T02:11:57.499Z,6.80
2024-01-26T02:15:01.781Z,6.83
2024-01-26T02:18:08.349Z,6.78
2024-01-26T02:21:14.031Z,6.84
2024-01-26T02:24:19.991Z,6.88
2024-01-26T02:27:25.986Z,6.92
2024-01-26T02:30:34.984Z,6.99
2024-01-26T02:33:40.798Z,7.06
2024-01-26T02:36:46.588Z,7.13
2024-01-26T02:39:52.412Z,7.21
2024-01-26T02:42:58.022Z,7.30
2024-01-26T02:46:09.995Z,7.35
2024-01-26T02:49:16.077Z,7.37
2024-01-26T02:52:22.277Z,7.40
2024-01-26T02:55:27.914Z,7.46
2024-01-26T02:58:33.586Z,7.46
2024-01-26T03:01:39.252Z,7.40
2024-01-26T03:04:44.850Z,7.39
2024-01-26T03:07:50.520Z,7.35
2024-01-26T03:10:56.132Z,7.37
2024-01-26T03:14:01.781Z,7.38
2024-01-26T03:17:07.781Z,7.40
2024-01-26T03:20:15.166Z,7.37
2024-01-26T03:23:20.900Z,7.34
2024-01-26T03:26:26.566Z,7.29
2024-01-26T03:29:32.232Z,7.23
2024-01-26T03:32:38.086Z,7.21
2024-01-26T03:35:43.809Z,7.18
2024-01-26T03:38:49.535Z,7.15
2024-01-26T03:41:55.614Z,7.13
2024-01-26T03:45:02.054Z,7.09
2024-01-26T03:48:07.211Z,7.06
2024-01-26T03:51:13.456Z,7.04
2024-01-26T03:54:17.715Z,7.08
2024-01-26T03:57:24.127Z,7.07
2024-01-26T04:00:29.808Z,7.10
2024-01-26T04:03:35.622Z,7.14
2024-01-26T04:06:43.813Z,7.19
2024-01-26T04:09:49.485Z,7.20
2024-01-26T04:12:55.089Z,7.21
2024-01-26T04:16:00.770Z,7.23
2024-01-26T04:19:06.563Z,7.13
2024-01-26T04:22:12.480Z,7.13
2024-01-26T04:25:18.296Z,7.14
2024-01-26T04:28:23.964Z,7.16
2024-01-26T04:31:29.847Z,7.14
2024-01-26T04:34:39.101Z,7.16
2024-01-26T04:37:45.173Z,7.23
2024-01-26T04:40:50.849Z,7.29
2024-01-26T04:43:56.735Z,7.36
2024-01-26T04:47:02.390Z,7.41
2024-01-26T04:50:09.090Z,7.46
2024-01-26T04:53:16.629Z,7.43
2024-01-26T04:56:22.997Z,7.36
2024-01-26T04:59:27.436Z,7.28
2024-01-26T05:02:33.134Z,7.19
2024-01-26T05:05:38.910Z,7.20
2024-01-26T05:08:45.257Z,7.25
2024-01-26T05:11:51.254Z,7.29
2024-01-26T05:14:56.948Z,7.34
2024-01-26T05:18:02.795Z,7.40
2024-01-26T05:21:09.456Z,7.49
2024-01-26T05:24:15.241Z,7.55
2024-01-26T05:27:20.913Z,7.61
2024-01-26T05:30:27.652Z,7.63
2024-01-26T05:33:33.619Z,7.60
2024-01-26T05:36:44.300Z,7.56
2024-01-26T05:39:50.070Z,7.53
2024-01-26T05:42:55.691Z,7.29
2024-01-26T05:46:01.338Z,7.16
2024-01-26T05:49:09.354Z,7.14
2024-01-26T05:52:15.836Z,7.14
2024-01-26T05:55:21.621Z,7.18
2024-01-26T05:58:27.466Z,7.26
2024-01-26T06:01:33.169Z,7.35
2024-01-26T06:04:38.803Z,7.45
2024-01-26T06:07:44.476Z,7.52
2024-01-26T06:10:50.197Z,7.58
2024-01-26T06:13:55.810Z,7.64
2024-01-26T06:17:01.481Z,7.71
2024-01-26T06:20:09.178Z,7.78
2024-01-26T06:23:14.896Z,7.84
2024-01-26T06:26:21.400Z,7.89
2024-01-26T06:29:27.156Z,7.90
2024-01-26T06:32:32.947Z,7.91
2024-01-26T06:35:39.454Z,7.93
2024-01-26T06:38:45.297Z,7.96
2024-01-26T06:41:51.929Z,7.99
2024-01-26T06:44:57.893Z,8.02
2024-01-26T06:48:03.828Z,8.01
2024-01-26T06:51:10.143Z,7.99
2024-01-26T06:54:15.962Z,8.00
2024-01-26T06:57:22.276Z,8.03
2024-01-26T07:00:28.824Z,8.07
2024-01-26T07:03:34.620Z,8.10
2024-01-26T07:06:40.503Z,8.11
2024-01-26T07:09:46.366Z,8.09
2024-01-26T07:12:52.088Z,8.07
2024-01-26T07:15:57.735Z,8.07
2024-01-26T07:19:03.471Z,8.09
2024-01-26T07:22:09.328Z,8.11
2024-01-26T07:25:20.300Z,8.13
2024-01-26T07:28:26.084Z,8.12
2024-01-26T07:31:31.753Z,8.12
2024-01-26T07:34:37.622Z,8.12
2024-01-26T07:37:43.409Z,8.11
2024-01-26T07:40:49.012Z,8.14
2024-01-26T07:43:54.660Z,8.14
2024-01-26T07:47:00.298Z,8.15
2024-01-26T07:50:07.164Z,8.17
2024-01-26T07:53:13.799Z,8.17
2024-01-26T07:56:19.555Z,8.13
2024-01-26T07:59:25.320Z,8.08
2024-01-26T08:02:31.981Z,8.05
2024-01-26T08:05:38.064Z,8.03
2024-01-26T08:08:44.092Z,8.01
2024-01-26T08:11:50.840Z,8.02
2024-01-26T08:15:01.643Z,8.05
2024-01-26T08:18:09.198Z,8.06
2024-01-26T08:21:15.059Z,8.05
2024-01-26T08:24:21.280Z,8.05
2024-01-26T08:27:27.312Z,8.05
2024-01-26T08:30:33.254Z,8.04
2024-01-26T08:33:39.239Z,8.06
2024-01-26T08:36:45.116Z,8.09
2024-01-26T08:39:51.080Z,8.11
2024-01-26T08:42:56.735Z,8.12
2024-01-26T08:46:02.388Z,8.15
2024-01-26T08:49:08.821Z,8.19
2024-01-26T08:52:14.606Z,8.20
2024-01-26T08:55:20.538Z,8.21
2024-01-26T08:58:26.419Z,8.22
2024-01-26T09:01:32.072Z,8.25
2024-01-26T09:04:38.285Z,8.27
2024-01-26T09:07:42.660Z,8.23
2024-01-26T09:10:48.455Z,8.20
2024-01-26T09:13:54.144Z,8.15
2024-01-26T09:17:02.057Z,8.05
2024-01-26T09:20:10.682Z,7.99
2024-01-26T09:23:16.663Z,7.97
2024-01-26T09:26:22.852Z,8.00
2024-01-26T09:29:27.781Z,8.07
2024-01-26T09:32:35.488Z,8.04
2024-01-26T09:35:41.442Z,7.96
2024-01-26T09:38:47.171Z,7.90
2024-01-26T09:41:52.993Z,7.89
2024-01-26T09:44:59.108Z,7.91
2024-01-26T09:48:08.369Z,7.95
2024-01-26T09:51:14.573Z,8.03
2024-01-26T09:54:22.822Z,8.12
2024-01-26T09:57:29.904Z,8.24
2024-01-26T10:00:35.767Z,8.36
2024-01-26T10:03:41.577Z,8.50
2024-01-26T10:06:49.700Z,8.60
2024-01-26T10:09:55.742Z,8.69
2024-01-26T10:13:01.866Z,8.76
2024-01-26T10:16:13.771Z,8.82
2024-01-26T10:19:27.196Z,8.87
2024-01-26T10:22:33.407Z,8.92
2024-01-26T10:25:41.423Z,8.99
2024-01-26T10:28:49.758Z,9.00
2024-01-26T10:31:55.716Z,9.02
2024-01-26T10:35:04.066Z,9.04
2024-01-26T10:38:12.441Z,9.04
2024-01-26T10:41:22.888Z,9.01
2024-01-26T10:44:29.159Z,8.98
2024-01-26T10:47:36.751Z,8.92
2024-01-26T10:50:43.499Z,8.86
2024-01-26T10:53:50.197Z,8.81
2024-01-26T10:56:56.423Z,8.78
2024-01-26T11:00:00.977Z,8.74
2024-01-26T11:03:07.801Z,8.67
2024-01-26T11:06:15.216Z,8.68
2024-01-26T11:09:22.331Z,8.71
2024-01-26T11:12:31.283Z,8.74
2024-01-26T11:15:38.662Z,8.77
2024-01-26T11:18:44.381Z,8.81
2024-01-26T11:21:50.821Z,8.87
2024-01-26T11:24:56.668Z,8.93
2024-01-26T11:28:01.544Z,8.92
2024-01-26T11:31:08.126Z,8.94
2024-01-26T11:34:23.288Z,8.99
2024-01-26T11:37:31.007Z,9.00
2024-01-26T11:40:37.477Z,9.02
2024-01-26T11:43:47.646Z,9.06
2024-01-26T11:46:54.055Z,9.03
2024-01-26T11:50:00.071Z,8.97
2024-01-26T11:53:06.740Z,8.96
2024-01-26T11:56:13.077Z,8.95
2024-01-26T11:59:19.008Z,8.96
2024-01-26T12:02:24.778Z,8.98
2024-01-26T12:05:31.405Z,8.98
2024-01-26T12:08:37.490Z,9.03
2024-01-26T12:11:43.890Z,9.07
2024-01-26T12:14:50.198Z,9.11
2024-01-26T12:17:54.376Z,9.13
2024-01-26T12:21:01.702Z,9.13
2024-01-26T12:24:15.833Z,9.17
2024-01-26T12:27:22.360Z,9.18
2024-01-26T12:30:27.468Z,9.19
2024-01-26T12:33:36.452Z,9.19
2024-01-26T12:36:42.548Z,9.25
2024-01-26T12:40:38.132Z,9.29
2024-01-26T12:43:45.114Z,9.27
2024-01-26T12:46:50.961Z,9.27
2024-01-26T12:49:56.832Z,9.28
2024-01-26T12:53:02.862Z,9.30
2024-01-26T12:56:10.057Z,9.33
2024-01-26T12:59:16.009Z,9.27
2024-01-26T13:02:21.882Z,8.72
2024-01-26T13:05:27.711Z,8.13
2024-01-26T13:08:33.408Z,7.69
2024-01-26T13:11:40.491Z,7.47
2024-01-26T13:14:48.099Z,7.79
2024-01-26T13:17:54.034Z,8.14
2024-01-26T13:21:00.261Z,8.35
2024-01-26T13:24:06.918Z,8.51
2024-01-26T13:27:14.357Z,8.65
2024-01-26T13:30:25.245Z,8.76
2024-01-26T13:33:32.339Z,8.93
2024-01-26T13:36:38.096Z,9.04
2024-01-26T13:39:43.747Z,9.13
2024-01-26T13:42:50.214Z,9.24
2024-01-26T13:45:55.963Z,9.36
2024-01-26T13:49:01.878Z,9.51
2024-01-26T13:52:09.584Z,9.53
2024-01-26T13:55:16.501Z,9.04
2024-01-26T13:58:22.405Z,8.53
2024-01-26T14:01:28.271Z,8.16
2024-01-26T14:04:34.106Z,7.85
2024-01-26T14:07:40.061Z,7.71
2024-01-26T14:10:45.902Z,8.08
2024-01-26T14:13:51.782Z,8.45
2024-01-26T14:16:58.791Z,8.69
2024-01-26T14:20:04.960Z,8.85
2024-01-26T14:23:10.668Z,8.99
2024-01-26T14:26:16.333Z,9.11
2024-01-26T14:29:22.294Z,9.20
2024-01-26T14:32:28.289Z,9.18
2024-01-26T14:35:34.133Z,8.68
2024-01-26T14:38:39.886Z,8.12
2024-01-26T14:41:45.567Z,7.72
2024-01-26T14:44:51.439Z,7.50
2024-01-26T14:47:57.128Z,7.81
2024-01-26T14:51:02.902Z,8.12
2024-01-26T14:54:08.657Z,8.32
2024-01-26T14:57:14.437Z,8.45
2024-01-26T15:00:22.748Z,8.54
2024-01-26T15:03:29.941Z,8.62
2024-01-26T15:06:36.267Z,8.67
2024-01-26T15:09:41.998Z,8.71
2024-01-26T15:12:47.730Z,8.40
2024-01-26T15:15:53.933Z,7.77
2024-01-26T15:22:03.632Z,6.88
2024-01-26T15:25:10.789Z,6.69
2024-01-26T15:28:20.470Z,7.00
2024-01-26T15:31:26.272Z,7.31
2024-01-26T15:34:32.473Z,7.48
2024-01-26T15:37:37.423Z,7.59
2024-01-26T15:40:43.981Z,7.62
2024-01-26T15:43:49.635Z,7.65
2024-01-26T15:46:55.366Z,7.66
2024-01-26T15:50:01.196Z,7.67
2024-01-26T15:53:07.568Z,7.66
2024-01-26T15:56:13.566Z,7.67
2024-01-26T15:59:19.189Z,7.65
2024-01-26T16:02:24.827Z,7.65
2024-01-26T16:05:30.475Z,7.63
2024-01-26T16:08:39.371Z,7.63
2024-01-26T16:11:45.093Z,7.61
2024-01-26T16:14:50.847Z,7.58
2024-01-26T16:17:56.815Z,7.53
2024-01-26T16:21:02.784Z,7.46
2024-01-26T16:24:09.825Z,7.37
2024-01-26T16:27:15.620Z,7.29
2024-01-26T16:30:21.936Z,7.19
2024-01-26T16:33:27.891Z,7.13
2024-01-26T16:36:34.717Z,7.09
2024-01-26T16:39:40.565Z,7.05
2024-01-26T16:42:46.359Z,7.02
2024-01-26T16:45:52.060Z,7.00
2024-01-26T16:48:59.830Z,6.97
2024-01-26T16:52:06.021Z,6.93
2024-01-26T16:55:12.594Z,6.83
2024-01-26T16:58:18.294Z,6.72
2024-01-26T17:01:24.392Z,6.62
2024-01-26T17:04:30.045Z,6.53
2024-01-26T17:07:36.452Z,6.47
2024-01-26T17:10:42.206Z,6.42
2024-01-26T17:13:47.842Z,6.38
2024-01-26T17:16:54.592Z,6.38
2024-01-26T17:20:00.322Z,6.39
2024-01-26T17:23:06.399Z,6.42
2024-01-26T17:26:12.045Z,6.45
2024-01-26T17:29:17.673Z,6.45
2024-01-26T17:32:23.358Z,6.45
2024-01-26T17:35:32.026Z,6.43
2024-01-26T17:38:38.681Z,6.42
2024-01-26T17:41:43.375Z,6.37
2024-01-26T17:44:50.503Z,6.29
2024-01-26T17:47:56.317Z,6.26
2024-01-26T17:51:02.241Z,6.24
2024-01-26T17:54:08.551Z,6.21
2024-01-26T17:57:12.730Z,6.16
2024-01-26T18:00:20.014Z,6.12
2024-01-26T18:03:25.813Z,6.10
2024-01-26T18:06:31.802Z,6.07
2024-01-26T18:09:37.591Z,6.05
2024-01-26T18:12:43.350Z,6.04
2024-01-26T18:15:49.169Z,6.06
2024-01-26T18:18:55.200Z,6.06
2024-01-26T18:22:01.114Z,6.05
2024-01-26T18:25:08.611Z,6.08
2024-01-26T18:28:14.396Z,6.14
2024-01-26T18:31:20.950Z,6.16
2024-01-26T18:34:27.031Z,6.20
2024-01-26T18:37:32.847Z,6.24
2024-01-26T18:40:38.494Z,6.26
2024-01-26T18:43:44.126Z,6.28
2024-01-26T18:46:49.919Z,6.32
2024-01-26T18:49:55.708Z,6.36
2024-01-26T18:53:01.525Z,6.39
2024-01-26T18:56:08.897Z,6.43
2024-01-26T18:59:17.685Z,6.46
2024-01-26T19:02:23.626Z,6.50
2024-01-26T19:05:29.570Z,6.51
2024-01-26T19:08:35.588Z,6.51
2024-01-26T19:11:44.669Z,6.52
2024-01-26T19:14:50.382Z,6.51
2024-01-26T19:17:56.223Z,6.53
2024-01-26T19:21:02.215Z,6.55
2024-01-26T19:24:09.127Z,6.51
2024-01-26T19:27:14.927Z,6.45
2024-01-26T19:30:21.051Z,6.38
2024-01-26T19:33:26.999Z,6.34
2024-01-26T19:36:32.855Z,6.29
2024-01-26T19:39:38.536Z,6.31
2024-01-26T19:42:44.176Z,6.31
2024-01-26T19:45:49.785Z,6.32
2024-01-26T19:48:56.038Z,6.36
2024-01-26T19:52:01.809Z,6.40
2024-01-26T19:55:09.646Z,6.44
2024-01-26T19:58:15.410Z,6.49
2024-01-26T20:01:21.246Z,6.51
2024-01-26T20:04:27.208Z,6.51
2024-01-26T20:07:33.270Z,6.51
2024-01-26T20:10:40.515Z,6.53
2024-01-26T20:13:46.586Z,6.53
2024-01-26T20:16:52.220Z,6.53
2024-01-26T20:19:59.795Z,6.53
2024-01-26T20:23:05.881Z,6.56
2024-01-26T20:26:13.204Z,6.59
2024-01-26T20:29:18.892Z,6.62
2024-01-26T20:32:27.354Z,6.66
2024-01-26T20:35:33.166Z,6.69
2024-01-26T20:38:39.102Z,6.72
2024-01-26T20:41:46.753Z,6.76
2024-01-26T20:44:52.576Z,6.80
2024-01-26T20:47:59.118Z,6.84
2024-01-26T20:51:05.034Z,6.87
2024-01-26T20:54:11.239Z,6.90
2024-01-26T20:57:18.243Z,6.94
2024-01-26T21:00:26.326Z,6.97
2024-01-26T21:03:32.466Z,7.00
2024-01-26T21:06:43.019Z,7.02
2024-01-26T21:09:48.800Z,7.05
2024-01-26T21:12:55.406Z,7.10
2024-01-26T21:16:01.088Z,7.09
2024-01-26T21:19:06.912Z,7.10
2024-01-26T21:22:12.698Z,7.14
2024-01-26T21:25:18.801Z,7.21
2024-01-26T21:28:25.461Z,7.26
2024-01-26T21:31:35.477Z,7.32
2024-01-26T21:34:41.357Z,7.39
2024-01-26T21:37:48.605Z,7.45
2024-01-26T21:40:54.558Z,7.49
2024-01-26T21:44:02.187Z,7.56
2024-01-26T21:47:08.747Z,7.64
2024-01-26T21:50:15.665Z,7.72
2024-01-26T21:53:21.582Z,7.83
2024-01-26T21:56:27.720Z,7.94
2024-01-26T21:59:33.670Z,8.08
2024-01-26T22:02:39.427Z,8.17
2024-01-26T22:05:45.474Z,8.28
2024-01-26T22:08:51.372Z,8.39
2024-01-26T22:11:57.253Z,8.51
2024-01-26T22:15:04.589Z,8.60
2024-01-26T22:18:10.793Z,8.69
2024-01-26T22:21:14.970Z,8.74
2024-01-26T22:24:20.640Z,8.77
2024-01-26T22:27:26.586Z,8.85
2024-01-26T22:30:32.841Z,8.89
2024-01-26T22:33:37.137Z,8.93
2024-01-26T22:36:42.966Z,8.97
2024-01-26T22:39:49.296Z,9.02
2024-01-26T22:42:54.943Z,9.07
2024-01-26T22:46:01.390Z,9.11
2024-01-26T22:49:07.371Z,9.15
2024-01-26T22:52:12.095Z,9.17
2024-01-26T22:55:19.555Z,9.17
2024-01-26T22:58:25.812Z,9.20
2024-01-26T23:01:31.987Z,9.21
2024-01-26T23:04:36.047Z,9.20
2024-01-26T23:07:41.635Z,9.14
2024-01-26T23:10:47.275Z,9.16
2024-01-26T23:13:53.385Z,9.19
2024-01-26T23:16:58.993Z,9.20
2024-01-26T23:20:06.284Z,9.23
2024-01-26T23:23:11.939Z,9.24
2024-01-26T23:26:17.680Z,9.24
2024-01-26T23:29:24.639Z,9.22
2024-01-26T23:32:30.829Z,9.23
2024-01-26T23:35:37.015Z,9.23
2024-01-26T23:38:43.069Z,9.20
2024-01-26T23:41:50.234Z,9.20
2024-01-26T23:44:57.313Z,9.20
2024-01-26T23:48:04.264Z,9.21
2024-01-26T23:51:10.209Z,9.22
2024-01-26T23:54:16.830Z,9.23
2024-01-26T23:57:22.566Z,9.26
